Time;durP1;ratioP1;P1;durP2;ratioP2;P2;SDS_P1;SDS_P2;PMS_P1;PMS_P2;Temp;Humidity;BMP_temperature;BMP_pressure;BME280_temperature;BME280_humidity;BME280_pressure;Samples;Min_cycle;Max_cycle;Signal;HPM_P1;HPM_P2
2023/02/26 00:02:32;;;;;;;23.70;7.60;;;;;;;0.62;81.84;98844.52;130616;1257;108747;-77
2023/02/26 00:05:38;;;;;;;11.60;4.30;;;;;;;0.57;81.66;98845.07;130768;1257;107481;-76
2023/02/26 00:08:43;;;;;;;12.40;4.50;;;;;;;0.56;82.04;98849.38;130654;1253;107333;-76
2023/02/26 00:11:50;;;;;;;16.20;5.90;;;;;;;0.55;82.23;98856.42;130794;1257;107503;-77
2023/02/26 00:14:56;;;;;;;12.10;4.00;;;;;;;0.53;82.45;98856.76;130729;1258;107352;-75
2023/02/26 00:18:05;;;;;;;16.20;6.40;;;;;;;0.51;82.41;98866.84;130764;1261;107571;-77
2023/02/26 00:21:17;;;;;;;6.30;2.90;;;;;;;0.55;82.81;98872.19;130702;1254;107531;-77
2023/02/26 00:24:23;;;;;;;8.40;4.00;;;;;;;0.61;82.73;98878.90;130580;1258;106743;-76
2023/02/26 00:27:29;;;;;;;19.60;7.40;;;;;;;0.61;82.77;98882.23;130677;1258;106584;-76
2023/02/26 00:30:36;;;;;;;9.30;4.30;;;;;;;0.62;82.87;98886.34;130643;1272;107537;-77
2023/02/26 00:33:43;;;;;;;15.30;5.80;;;;;;;0.61;83.07;98887.95;130490;1254;107258;-77
2023/02/26 00:37:03;;;;;;;12.90;5.50;;;;;;;0.58;83.13;98890.64;130529;1259;107888;-77
2023/02/26 00:40:21;;;;;;;25.70;9.70;;;;;;;0.59;83.19;98892.98;130570;1258;107496;-76
2023/02/26 00:43:28;;;;;;;20.40;7.90;;;;;;;0.59;82.81;98894.58;130661;1259;107508;-77
2023/02/26 00:46:44;;;;;;;9.80;4.80;;;;;;;0.55;82.82;98897.20;130719;1271;107528;-76
2023/02/26 00:50:04;;;;;;;11.90;6.30;;;;;;;0.54;82.84;98896.76;130646;1258;107546;-77
2023/02/26 00:53:17;;;;;;;8.60;4.60;;;;;;;0.47;82.89;98899.59;130700;1259;107738;-77
2023/02/26 00:56:23;;;;;;;8.50;4.70;;;;;;;0.43;82.88;98901.14;130575;1257;107583;-79
2023/02/26 00:59:28;;;;;;;8.80;4.70;;;;;;;0.40;83.03;98900.67;130520;1257;107230;-77
2023/02/26 01:02:36;;;;;;;11.50;4.10;;;;;;;0.34;82.99;98904.79;130705;1254;106675;-76
2023/02/26 01:05:42;;;;;;;9.90;4.40;;;;;;;0.32;83.09;98909.30;130782;1257;106485;-76
2023/02/26 01:08:54;;;;;;;8.30;4.40;;;;;;;0.29;83.06;98909.89;130826;1256;107528;-76
2023/02/26 01:12:04;;;;;;;9.40;4.90;;;;;;;0.30;83.19;98916.27;130618;1254;107485;-77
2023/02/26 01:15:11;;;;;;;9.10;4.20;;;;;;;0.32;83.23;98914.92;130575;1253;107578;-77
2023/02/26 01:18:24;;;;;;;11.60;5.00;;;;;;;0.29;83.03;98920.37;130828;1257;106199;-76
2023/02/26 01:21:34;;;;;;;12.10;5.30;;;;;;;0.24;83.12;98925.69;130683;1257;108079;-76
2023/02/26 01:24:40;;;;;;;10.00;4.70;;;;;;;0.24;83.30;98930.81;130651;1258;107418;-75
2023/02/26 01:27:47;;;;;;;11.00;5.30;;;;;;;0.22;83.35;98939.84;130697;1259;107514;-77
2023/02/26 01:30:59;;;;;;;9.00;4.40;;;;;;;0.25;83.28;98946.80;130570;1257;108688;-77
2023/02/26 01:34:11;;;;;;;8.30;4.40;;;;;;;0.26;83.28;98954.79;130726;1257;107588;-77
2023/02/26 01:37:31;;;;;;;8.50;4.20;;;;;;;0.23;83.16;98960.94;130663;1253;107883;-75
2023/02/26 01:41:06;;;;;;;8.50;4.40;;;;;;;0.23;83.22;98960.80;130513;1258;107570;-76
2023/02/26 01:44:22;;;;;;;9.00;4.30;;;;;;;0.22;83.20;98966.98;130698;1257;107540;-77
2023/02/26 01:47:37;;;;;;;7.70;3.90;;;;;;;0.25;83.25;98978.66;130739;1257;107526;-78
2023/02/26 01:50:44;;;;;;;9.30;4.30;;;;;;;0.26;83.09;98989.59;130794;1258;107530;-77
2023/02/26 01:53:49;;;;;;;8.50;4.30;;;;;;;0.27;83.07;98995.61;130556;1257;107572;-77
2023/02/26 01:57:00;;;;;;;9.20;4.70;;;;;;;0.27;83.06;99004.00;130737;1257;106744;-75
2023/02/26 02:00:11;;;;;;;9.50;5.50;;;;;;;0.25;83.31;99009.55;130584;1253;107588;-76
2023/02/26 02:03:22;;;;;;;11.10;5.40;;;;;;;0.23;83.33;99010.59;130669;1259;107630;-77
2023/02/26 02:06:29;;;;;;;14.00;6.10;;;;;;;0.17;83.67;99013.35;130589;1258;107434;-76
2023/02/26 02:09:35;;;;;;;13.10;6.00;;;;;;;0.16;83.62;99016.19;130544;1253;107901;-76
2023/02/26 02:12:48;;;;;;;11.90;5.20;;;;;;;0.16;83.93;99019.36;130587;1260;107462;-77
2023/02/26 02:16:03;;;;;;;9.50;5.50;;;;;;;0.15;83.95;99028.34;130542;1259;107967;-77
2023/02/26 02:19:29;;;;;;;12.30;6.80;;;;;;;0.14;83.79;99036.81;130528;1260;106603;-77
2023/02/26 02:22:51;;;;;;;14.20;6.80;;;;;;;0.09;84.02;99038.77;130546;1259;107362;-76
2023/02/26 02:26:30;;;;;;;10.00;5.50;;;;;;;0.10;84.06;99044.46;130596;1257;107442;-76
2023/02/26 02:30:10;;;;;;;9.30;4.60;;;;;;;0.14;83.92;99053.60;130556;1257;107475;-75
2023/02/26 02:33:18;;;;;;;8.80;4.50;;;;;;;0.16;83.80;99059.38;130635;1259;108644;-75
2023/02/26 02:36:32;;;;;;;11.50;5.10;;;;;;;0.16;83.83;99062.05;130666;1255;107401;-77
2023/02/26 02:39:44;;;;;;;9.90;5.10;;;;;;;0.13;83.76;99062.05;130616;1271;107552;-77
2023/02/26 02:42:55;;;;;;;11.90;5.00;;;;;;;0.10;83.79;99062.36;130461;1253;201259;-76
2023/02/26 02:46:05;;;;;;;7.60;4.10;;;;;;;0.09;83.91;99071.65;130807;1257;108577;-76
2023/02/26 02:49:15;;;;;;;10.50;5.40;;;;;;;0.09;84.05;99081.45;130820;1253;107583;-75
2023/02/26 02:52:24;;;;;;;9.30;4.60;;;;;;;0.11;84.10;99089.53;130829;1256;107754;-77
2023/02/26 02:55:34;;;;;;;7.50;4.80;;;;;;;0.12;84.09;99098.69;130572;1259;108602;-76
2023/02/26 02:58:43;;;;;;;9.00;4.80;;;;;;;0.08;84.45;99102.98;130601;1253;108736;-76
2023/02/26 03:01:54;;;;;;;8.00;4.90;;;;;;;0.06;84.64;99105.41;130529;1260;107590;-76
2023/02/26 03:04:59;;;;;;;11.00;4.80;;;;;;;0.09;84.93;99112.05;130554;1253;107625;-76
2023/02/26 03:08:09;;;;;;;7.70;4.40;;;;;;;0.07;85.08;99117.08;130608;1259;107631;-79
2023/02/26 03:11:15;;;;;;;8.40;4.40;;;;;;;0.08;85.19;99121.77;130699;1253;107380;-76
2023/02/26 03:14:22;;;;;;;8.70;4.30;;;;;;;0.01;85.13;99126.95;130902;1258;107558;-76
2023/02/26 03:17:33;;;;;;;7.30;4.10;;;;;;;-0.06;85.56;99132.20;130724;1257;106780;-75
2023/02/26 03:20:47;;;;;;;5.80;3.30;;;;;;;-0.10;85.87;99137.05;130696;1257;107531;-76
2023/02/26 03:24:00;;;;;;;8.70;4.00;;;;;;;-0.09;85.82;99139.73;130711;1258;107548;-77
2023/02/26 03:27:11;;;;;;;6.10;3.70;;;;;;;-0.09;86.22;99142.02;130579;1253;107877;-78
2023/02/26 03:30:21;;;;;;;8.00;4.20;;;;;;;-0.09;86.16;99146.39;130588;1258;108612;-76
2023/02/26 03:33:33;;;;;;;6.10;3.50;;;;;;;-0.10;86.09;99153.61;130671;1257;107447;-76
2023/02/26 03:36:45;;;;;;;8.60;4.30;;;;;;;-0.12;86.21;99155.03;130646;1253;107576;-76
2023/02/26 03:40:04;;;;;;;6.60;3.30;;;;;;;-0.17;86.48;99159.25;130658;1253;106426;-76
2023/02/26 03:43:17;;;;;;;6.80;3.40;;;;;;;-0.18;86.60;99168.56;130888;1253;107542;-76
2023/02/26 03:46:29;;;;;;;8.60;4.50;;;;;;;-0.21;87.01;99173.84;130641;1259;107479;-76
2023/02/26 03:49:40;;;;;;;8.00;4.00;;;;;;;-0.21;86.85;99176.48;130551;1253;108716;-77
2023/02/26 03:52:48;;;;;;;6.70;3.80;;;;;;;-0.22;86.93;99179.84;130565;1257;107566;-77
2023/02/26 03:56:20;;;;;;;8.50;4.20;;;;;;;-0.22;87.01;99185.64;130697;1259;107387;-76
2023/02/26 04:00:01;;;;;;;5.50;3.30;;;;;;;-0.25;87.20;99193.73;130332;1264;108663;-76
2023/02/26 04:03:28;;;;;;;6.50;3.40;;;;;;;-0.23;86.83;99198.45;130851;1260;109255;-76
2023/02/26 04:06:35;;;;;;;7.60;4.10;;;;;;;-0.19;86.87;99204.48;130825;1256;107460;-76
2023/02/26 04:09:44;;;;;;;5.70;3.50;;;;;;;-0.21;86.85;99210.36;130823;1253;108792;-79
2023/02/26 04:12:50;;;;;;;5.90;3.60;;;;;;;-0.24;86.87;99214.45;130774;1258;108789;-76
2023/02/26 04:15:55;;;;;;;7.60;3.70;;;;;;;-0.26;86.88;99220.33;130594;1257;107465;-77
2023/02/26 04:19:01;;;;;;;6.30;3.40;;;;;;;-0.27;86.58;99223.25;130512;1253;108078;-76
2023/02/26 04:22:09;;;;;;;5.10;2.90;;;;;;;-0.26;86.89;99232.04;130781;1258;107519;-76
2023/02/26 04:25:15;;;;;;;7.60;3.30;;;;;;;-0.23;86.59;99239.69;130724;1257;107594;-76
2023/02/26 04:28:20;;;;;;;5.40;2.80;;;;;;;-0.19;86.44;99243.78;130692;1259;107257;-77
2023/02/26 04:31:26;;;;;;;6.50;3.20;;;;;;;-0.12;86.25;99243.48;130583;1258;107412;-75
2023/02/26 04:34:32;;;;;;;5.70;3.30;;;;;;;-0.14;85.96;99243.45;130764;1253;106704;-76
2023/02/26 04:37:38;;;;;;;6.80;3.70;;;;;;;-0.19;85.86;99246.23;130566;1257;107481;-74
2023/02/26 04:40:43;;;;;;;6.80;3.50;;;;;;;-0.25;85.76;99248.20;130827;1253;107394;-76
2023/02/26 04:43:51;;;;;;;6.60;2.90;;;;;;;-0.24;85.93;99247.61;130864;1253;107640;-76
2023/02/26 04:47:04;;;;;;;8.30;4.60;;;;;;;-0.22;85.54;99247.65;130633;1257;107520;-76
2023/02/26 04:50:12;;;;;;;10.00;5.00;;;;;;;-0.21;85.55;99251.25;130586;1257;107478;-77
2023/02/26 04:53:18;;;;;;;7.50;4.20;;;;;;;-0.20;85.48;99255.92;130629;1253;107535;-77
2023/02/26 04:56:23;;;;;;;7.30;4.50;;;;;;;-0.21;85.11;99266.50;130551;1259;106376;-76
2023/02/26 04:59:29;;;;;;;6.90;4.60;;;;;;;-0.23;85.14;99274.14;130797;1258;107489;-75
2023/02/26 05:02:35;;;;;;;6.00;3.60;;;;;;;-0.27;85.06;99274.10;130570;1253;107445;-75
2023/02/26 05:05:42;;;;;;;6.50;3.80;;;;;;;-0.30;85.23;99274.95;130720;1253;107441;-75
2023/02/26 05:08:48;;;;;;;6.50;4.40;;;;;;;-0.28;85.19;99280.45;130627;1258;107535;-77
2023/02/26 05:11:54;;;;;;;7.40;4.40;;;;;;;-0.31;85.20;99286.79;130615;1260;107534;-77
2023/02/26 05:14:59;;;;;;;6.70;4.10;;;;;;;-0.31;85.27;99290.62;130596;1257;107403;-76
2023/02/26 05:18:05;;;;;;;6.00;4.20;;;;;;;-0.29;85.26;99296.43;130678;1253;107399;-76
2023/02/26 05:21:11;;;;;;;7.30;4.00;;;;;;;-0.29;85.04;99297.98;130715;1253;107570;-76
2023/02/26 05:24:17;;;;;;;6.40;3.60;;;;;;;-0.33;84.65;99303.86;130679;1253;107940;-78
2023/02/26 05:27:22;;;;;;;5.00;3.30;;;;;;;-0.32;84.54;99310.60;130551;1253;107530;-77
2023/02/26 05:30:29;;;;;;;7.70;4.80;;;;;;;-0.31;84.56;99317.69;130706;1258;107493;-76
2023/02/26 05:33:35;;;;;;;6.00;4.20;;;;;;;-0.28;84.37;99325.36;130631;1256;107502;-75
2023/02/26 05:36:40;;;;;;;10.00;7.00;;;;;;;-0.30;83.89;99336.01;130548;1258;107372;-76
2023/02/26 05:39:46;;;;;;;6.80;4.90;;;;;;;-0.32;84.34;99344.35;130625;1253;107517;-78
2023/02/26 05:42:51;;;;;;;7.10;5.00;;;;;;;-0.35;84.16;99352.71;130615;1255;105899;-76
2023/02/26 05:45:57;;;;;;;10.30;6.60;;;;;;;-0.36;84.18;99355.99;130575;1267;107548;-76
2023/02/26 05:49:03;;;;;;;8.00;5.60;;;;;;;-0.35;84.40;99367.61;130561;1259;107387;-75
2023/02/26 05:52:08;;;;;;;9.00;5.80;;;;;;;-0.30;84.62;99376.70;130599;1259;107566;-75
2023/02/26 05:55:14;;;;;;;10.50;5.00;;;;;;;-0.26;84.68;99386.19;130605;1258;107209;-76
2023/02/26 05:58:20;;;;;;;7.70;4.30;;;;;;;-0.24;84.65;99394.80;130607;1253;107629;-76
2023/02/26 06:01:25;;;;;;;12.70;7.40;;;;;;;-0.25;84.73;99396.43;130669;1253;107505;-76
2023/02/26 06:04:31;;;;;;;8.20;4.40;;;;;;;-0.27;85.01;99404.13;130577;1258;108716;-77
2023/02/26 06:07:36;;;;;;;6.20;3.40;;;;;;;-0.36;83.41;99410.48;130575;1259;109264;-76
2023/02/26 06:10:43;;;;;;;5.60;3.30;;;;;;;-0.35;83.38;99417.39;130587;1257;105548;-78
2023/02/26 06:13:50;;;;;;;5.40;3.00;;;;;;;-0.29;82.79;99424.11;130643;1257;107500;-77
2023/02/26 06:16:56;;;;;;;9.30;4.20;;;;;;;-0.23;82.11;99434.21;130673;1258;107978;-77
2023/02/26 06:20:02;;;;;;;3.60;2.30;;;;;;;-0.17;81.65;99439.77;130765;1253;107444;-76
2023/02/26 06:23:07;;;;;;;4.40;2.30;;;;;;;-0.17;79.26;99438.86;130620;1253;107434;-76
2023/02/26 06:26:13;;;;;;;4.70;2.00;;;;;;;-0.18;78.94;99447.31;130593;1258;107559;-77
2023/02/26 06:29:19;;;;;;;3.00;1.60;;;;;;;-0.20;77.95;99453.39;130858;1259;107425;-77
2023/02/26 06:32:25;;;;;;;3.10;1.80;;;;;;;-0.23;77.80;99459.07;130660;1261;107239;-78
2023/02/26 06:35:31;;;;;;;2.90;1.70;;;;;;;-0.25;78.09;99460.76;130983;1258;107655;-75
2023/02/26 06:38:36;;;;;;;3.70;2.00;;;;;;;-0.25;78.14;99469.14;130628;1253;107418;-76
2023/02/26 06:41:42;;;;;;;3.90;2.40;;;;;;;-0.28;77.44;99472.64;130685;1259;106163;-76
2023/02/26 06:44:49;;;;;;;4.60;2.20;;;;;;;-0.26;77.47;99477.79;130603;1253;107448;-77
2023/02/26 06:47:55;;;;;;;3.30;2.20;;;;;;;-0.25;77.63;99485.73;130598;1259;107559;-76
2023/02/26 06:51:01;;;;;;;3.80;2.10;;;;;;;-0.20;77.69;99493.09;130596;1253;107248;-75
2023/02/26 06:54:07;;;;;;;4.70;2.20;;;;;;;-0.15;78.02;99496.83;130639;1258;107532;-77
2023/02/26 06:57:12;;;;;;;3.40;2.00;;;;;;;-0.08;77.18;99502.63;130716;1258;107497;-77
2023/02/26 07:00:19;;;;;;;3.00;1.90;;;;;;;-0.05;77.31;99509.21;130771;1259;107751;-76
2023/02/26 07:03:24;;;;;;;2.50;1.60;;;;;;;-0.01;76.80;99514.56;130678;1258;107227;-75
2023/02/26 07:06:30;;;;;;;4.90;2.40;;;;;;;0.01;76.19;99521.77;130681;1253;107447;-77
2023/02/26 07:09:36;;;;;;;4.50;2.40;;;;;;;-0.01;76.14;99526.05;130608;1257;107522;-77
2023/02/26 07:12:41;;;;;;;3.30;1.90;;;;;;;0.04;76.62;99533.61;130642;1259;107504;-75
2023/02/26 07:15:47;;;;;;;7.80;2.20;;;;;;;0.08;75.00;99538.10;130751;1258;107475;-76
2023/02/26 07:18:52;;;;;;;5.90;2.70;;;;;;;0.06;73.62;99542.74;130684;1253;107378;-76
2023/02/26 07:21:58;;;;;;;6.00;2.80;;;;;;;0.05;74.58;99548.75;130750;1269;107231;-77
2023/02/26 07:25:04;;;;;;;6.30;3.00;;;;;;;0.07;75.31;99557.59;130749;1259;107549;-77
2023/02/26 07:28:09;;;;;;;5.60;2.70;;;;;;;0.07;73.82;99562.80;130787;1259;108607;-76
2023/02/26 07:31:16;;;;;;;4.50;2.40;;;;;;;0.11;75.89;99567.58;130710;1259;108661;-76
2023/02/26 07:34:21;;;;;;;6.70;2.60;;;;;;;0.18;75.92;99572.55;130733;1253;107447;-77
2023/02/26 07:37:27;;;;;;;7.30;3.20;;;;;;;0.23;75.18;99580.98;130786;1259;107244;-76
2023/02/26 07:40:34;;;;;;;7.10;2.80;;;;;;;0.21;73.71;99586.52;130664;1253;107437;-77
2023/02/26 07:43:39;;;;;;;5.40;2.80;;;;;;;0.19;74.09;99593.30;130764;1253;108628;-75
2023/02/26 07:46:45;;;;;;;6.60;3.30;;;;;;;0.22;74.24;99601.15;130794;1257;107534;-76
2023/02/26 07:49:50;;;;;;;7.70;3.10;;;;;;;0.19;72.76;99606.79;130798;1259;107659;-76
2023/02/26 07:52:56;;;;;;;5.80;2.90;;;;;;;0.19;74.03;99606.41;130678;1259;109363;-76
2023/02/26 07:56:02;;;;;;;4.90;2.80;;;;;;;0.21;73.90;99606.95;130649;1253;107322;-77
2023/02/26 07:59:07;;;;;;;5.80;2.80;;;;;;;0.25;73.72;99612.14;130701;1253;107528;-76
2023/02/26 08:02:13;;;;;;;6.10;3.00;;;;;;;0.29;74.21;99619.02;130708;1259;107582;-77
2023/02/26 08:05:19;;;;;;;7.70;3.80;;;;;;;0.32;73.69;99625.98;130610;1258;108614;-75
2023/02/26 08:08:25;;;;;;;9.10;4.50;;;;;;;0.35;73.49;99634.17;130677;1267;108113;-76
2023/02/26 08:11:31;;;;;;;7.70;3.70;;;;;;;0.34;73.45;99639.34;130648;1257;107565;-76
2023/02/26 08:14:38;;;;;;;7.30;3.40;;;;;;;0.36;73.86;99641.84;130591;1253;107290;-75
2023/02/26 08:17:44;;;;;;;5.70;3.40;;;;;;;0.38;73.79;99643.78;130825;1252;107356;-77
2023/02/26 08:20:52;;;;;;;6.10;3.10;;;;;;;0.47;74.51;99650.72;130819;1256;107447;-77
2023/02/26 08:23:58;;;;;;;6.00;3.10;;;;;;;0.51;73.48;99654.66;130682;1264;108367;-77
2023/02/26 08:27:03;;;;;;;6.80;3.40;;;;;;;0.54;72.98;99653.93;130640;1257;107539;-77
2023/02/26 08:30:11;;;;;;;6.20;3.50;;;;;;;0.49;72.08;99654.94;130746;1253;107478;-76
2023/02/26 08:33:18;;;;;;;8.90;4.40;;;;;;;0.50;72.81;99660.83;130807;1264;107523;-78
2023/02/26 08:36:23;;;;;;;13.80;7.60;;;;;;;0.52;73.34;99662.64;130687;1254;107397;-75
2023/02/26 08:39:31;;;;;;;16.40;7.30;;;;;;;0.56;73.11;99671.44;130843;1259;107562;-75
2023/02/26 08:42:37;;;;;;;12.60;5.40;;;;;;;0.61;72.38;99675.17;130789;1257;107406;-76
2023/02/26 08:45:43;;;;;;;10.80;4.80;;;;;;;0.66;72.62;99680.80;130855;1258;105535;-74
2023/02/26 08:48:49;;;;;;;13.90;6.00;;;;;;;0.71;73.20;99684.60;130788;1259;107514;-74
2023/02/26 08:51:55;;;;;;;12.90;5.20;;;;;;;0.76;72.14;99688.69;130711;1259;107429;-73
2023/02/26 08:55:00;;;;;;;8.40;4.00;;;;;;;0.82;71.60;99697.55;130721;1256;107433;-73
2023/02/26 08:58:06;;;;;;;7.40;3.80;;;;;;;0.81;71.03;99705.16;130786;1256;107433;-74
2023/02/26 09:01:12;;;;;;;8.10;3.70;;;;;;;0.79;70.33;99710.20;130773;1256;107431;-75
2023/02/26 09:04:18;;;;;;;6.80;3.40;;;;;;;0.86;72.55;99716.89;130788;1256;107578;-73
2023/02/26 09:07:23;;;;;;;5.50;2.60;;;;;;;0.99;71.53;99719.50;130896;1255;107408;-73
2023/02/26 09:10:29;;;;;;;6.30;2.80;;;;;;;1.04;70.36;99725.32;130784;1254;106272;-74
2023/02/26 09:13:35;;;;;;;4.20;2.20;;;;;;;1.01;70.51;99731.11;130705;1259;106553;-74
2023/02/26 09:16:40;;;;;;;3.80;2.40;;;;;;;1.02;70.15;99732.27;130690;1258;106536;-74
2023/02/26 09:19:46;;;;;;;5.10;2.90;;;;;;;1.16;71.75;99739.16;130697;1253;107245;-74
2023/02/26 09:22:51;;;;;;;7.50;4.10;;;;;;;1.31;70.92;99744.08;130772;1254;107594;-75
2023/02/26 09:25:58;;;;;;;5.60;2.90;;;;;;;1.39;71.03;99746.39;130787;1257;107236;-74
2023/02/26 09:29:03;;;;;;;4.40;2.90;;;;;;;1.44;69.24;99755.61;130778;1256;107400;-74
2023/02/26 09:32:09;;;;;;;3.80;2.40;;;;;;;1.39;68.35;99758.60;130823;1253;107368;-74
2023/02/26 09:35:14;;;;;;;8.40;3.70;;;;;;;1.41;70.54;99763.91;130891;1253;107383;-75
2023/02/26 09:38:20;;;;;;;7.30;3.80;;;;;;;1.45;68.41;99769.79;130804;1253;107736;-75
2023/02/26 09:41:30;;;;;;;9.20;5.30;;;;;;;1.42;68.72;99777.34;130765;1256;107451;-74
2023/02/26 09:44:38;;;;;;;13.90;7.20;;;;;;;1.38;69.78;99782.48;130575;1259;108525;-75
2023/02/26 09:47:51;;;;;;;10.40;5.20;;;;;;;1.40;70.51;99782.76;130488;1258;107849;-76
2023/02/26 09:50:58;;;;;;;7.00;3.10;;;;;;;1.41;68.68;99787.09;130816;1253;107506;-76
2023/02/26 09:54:12;;;;;;;8.20;3.70;;;;;;;1.41;70.02;99792.65;130940;1256;107428;-74
2023/02/26 09:57:31;;;;;;;8.90;4.60;;;;;;;1.48;70.31;99801.45;130707;1253;107364;-76
2023/02/26 10:00:44;;;;;;;6.70;3.80;;;;;;;1.56;69.23;99807.05;130665;1258;107479;-78
2023/02/26 10:04:02;;;;;;;8.10;4.30;;;;;;;1.55;69.58;99809.01;130805;1253;107703;-77
2023/02/26 10:07:20;;;;;;;6.30;3.40;;;;;;;1.56;68.42;99812.14;130735;1259;107487;-77
2023/02/26 10:10:35;;;;;;;6.90;3.70;;;;;;;1.52;67.50;99814.14;130672;1254;106528;-77
2023/02/26 10:13:45;;;;;;;6.30;3.60;;;;;;;1.58;69.30;99819.71;130655;1259;107461;-75
2023/02/26 10:16:56;;;;;;;18.80;10.50;;;;;;;1.64;68.38;99828.05;130868;1259;108625;-77
2023/02/26 10:20:10;;;;;;;7.20;3.30;;;;;;;1.65;68.02;99833.27;130715;1254;107504;-76
2023/02/26 10:23:23;;;;;;;8.50;4.60;;;;;;;1.56;67.63;99840.73;130736;1259;107490;-76
2023/02/26 10:26:33;;;;;;;5.00;2.60;;;;;;;1.46;65.99;99847.14;130803;1259;106276;-76
2023/02/26 10:29:44;;;;;;;4.60;2.70;;;;;;;1.38;67.15;99850.50;130702;1256;107413;-76
2023/02/26 10:32:59;;;;;;;5.80;2.80;;;;;;;1.37;67.46;99859.36;130655;1258;107553;-77
2023/02/26 10:36:14;;;;;;;6.50;3.40;;;;;;;1.38;66.74;99863.31;130675;1259;108559;-79
2023/02/26 10:39:27;;;;;;;7.40;4.50;;;;;;;1.38;67.25;99862.08;130567;1258;107529;-78
2023/02/26 10:42:38;;;;;;;6.10;3.50;;;;;;;1.41;67.25;99862.91;130600;1254;107553;-78
2023/02/26 10:45:57;;;;;;;6.60;3.90;;;;;;;1.35;65.52;99870.33;130670;1254;107262;-79
2023/02/26 10:49:22;;;;;;;4.20;2.50;;;;;;;1.28;64.95;99873.77;130657;1254;107439;-74
2023/02/26 10:52:31;;;;;;;5.00;3.00;;;;;;;1.37;66.72;99878.45;130730;1259;107435;-73
2023/02/26 10:55:42;;;;;;;9.00;5.40;;;;;;;1.48;65.02;99887.00;130717;1259;107557;-78
2023/02/26 10:58:48;;;;;;;8.10;4.40;;;;;;;1.51;65.31;99890.09;130665;1259;107640;-75
2023/02/26 11:01:54;;;;;;;14.40;10.40;;;;;;;1.56;64.93;99895.71;130673;1259;107478;-74
2023/02/26 11:05:00;;;;;;;9.30;5.90;;;;;;;1.64;65.37;99891.84;130762;1261;107513;-75
2023/02/26 11:08:11;;;;;;;3.90;2.80;;;;;;;1.75;64.96;99897.96;130635;1259;107610;-75
2023/02/26 11:11:39;;;;;;;7.50;4.70;;;;;;;1.85;64.23;99904.30;130674;1259;106717;-74
2023/02/26 11:14:47;;;;;;;11.40;7.70;;;;;;;1.82;62.55;99903.45;130703;1255;107593;-75
2023/02/26 11:17:57;;;;;;;15.50;9.30;;;;;;;1.85;63.85;99908.14;130558;1259;107430;-77
2023/02/26 11:21:04;;;;;;;26.40;16.50;;;;;;;1.89;62.05;99910.69;130693;1258;107592;-77
2023/02/26 11:24:15;;;;;;;15.10;9.60;;;;;;;1.91;61.30;99911.96;130525;1262;107496;-76
2023/02/26 11:27:24;;;;;;;4.80;3.00;;;;;;;2.06;63.17;99918.27;130563;1256;107342;-74
2023/02/26 11:30:33;;;;;;;3.80;2.10;;;;;;;2.23;62.60;99921.30;130564;1258;107514;-76
2023/02/26 11:33:43;;;;;;;3.90;2.20;;;;;;;2.24;60.99;99927.19;130559;1258;107538;-77
2023/02/26 11:36:50;;;;;;;3.20;1.80;;;;;;;2.26;62.73;99927.20;130605;1261;107382;-76
2023/02/26 11:39:58;;;;;;;2.40;1.60;;;;;;;2.46;63.92;99928.79;130529;1257;107260;-77
2023/02/26 11:43:07;;;;;;;4.40;2.30;;;;;;;2.55;61.68;99938.67;130690;1258;107466;-76
2023/02/26 11:46:14;;;;;;;6.50;3.00;;;;;;;2.52;60.82;99950.85;130635;1257;108720;-76
2023/02/26 11:49:22;;;;;;;3.90;2.30;;;;;;;2.47;61.76;99951.54;130663;1257;107395;-75
2023/02/26 11:52:33;;;;;;;3.70;2.40;;;;;;;2.43;62.24;99953.80;130666;1259;107237;-77
2023/02/26 11:55:44;;;;;;;4.90;2.70;;;;;;;2.39;61.96;99962.67;130625;1260;107539;-76
2023/02/26 11:58:55;;;;;;;5.10;3.30;;;;;;;2.31;61.11;99967.77;130664;1258;107611;-76
2023/02/26 12:02:10;;;;;;;5.30;3.20;;;;;;;2.18;60.81;99966.75;130677;1270;108083;-76
2023/02/26 12:05:18;;;;;;;6.30;3.40;;;;;;;2.11;61.30;99976.71;130788;1259;107511;-75
2023/02/26 12:08:27;;;;;;;8.20;4.10;;;;;;;2.12;61.09;99973.27;130685;1259;107588;-76
2023/02/26 12:11:51;;;;;;;6.00;3.00;;;;;;;2.07;60.22;99979.64;130756;1259;107484;-76
2023/02/26 12:15:10;;;;;;;10.70;5.50;;;;;;;2.04;60.40;99984.92;130741;1261;107622;-75
2023/02/26 12:18:30;;;;;;;16.20;6.70;;;;;;;2.07;60.92;99996.61;130653;1264;108511;-75
2023/02/26 12:21:56;;;;;;;5.90;2.40;;;;;;;2.04;59.06;100005.23;130607;1256;108069;-76
2023/02/26 12:25:32;;;;;;;8.00;4.20;;;;;;;2.05;60.47;100008.52;130639;1267;107622;-76
2023/02/26 12:28:48;;;;;;;5.20;3.00;;;;;;;2.04;58.10;100005.11;130788;1266;107469;-77
2023/02/26 12:32:15;;;;;;;8.60;4.20;;;;;;;1.96;58.19;100006.88;130805;1259;108684;-76
2023/02/26 12:35:37;;;;;;;3.70;1.90;;;;;;;1.99;59.85;100004.90;130819;1257;107557;-76
2023/02/26 12:38:52;;;;;;;7.30;3.50;;;;;;;2.08;59.91;100007.24;130868;1267;108606;-75
2023/02/26 12:42:10;;;;;;;9.70;4.80;;;;;;;2.15;61.41;100006.63;130667;1260;107710;-75
2023/02/26 12:45:30;;;;;;;7.40;2.80;;;;;;;2.20;59.32;100009.44;130638;1259;107400;-75
2023/02/26 12:48:55;;;;;;;4.50;1.90;;;;;;;2.12;60.06;100012.09;130649;1256;107373;-76
2023/02/26 12:52:36;;;;;;;5.20;2.80;;;;;;;2.15;61.04;100012.21;130628;1259;110052;-76
2023/02/26 12:55:58;;;;;;;6.80;3.40;;;;;;;2.20;61.16;100018.95;130650;1267;107521;-75
2023/02/26 12:59:19;;;;;;;5.40;3.10;;;;;;;2.18;61.23;100019.05;130617;1258;108604;-74
2023/02/26 13:02:54;;;;;;;5.60;3.00;;;;;;;2.23;60.72;100022.19;130739;1255;107414;-75
2023/02/26 13:06:22;;;;;;;7.70;3.70;;;;;;;2.23;61.15;100025.52;130861;1260;108652;-77
2023/02/26 13:09:38;;;;;;;6.70;3.70;;;;;;;2.30;62.22;100023.84;130953;1264;107276;-74
2023/02/26 13:12:53;;;;;;;5.40;2.70;;;;;;;2.44;61.42;100026.95;130883;1259;107535;-75
2023/02/26 13:16:11;;;;;;;5.80;3.40;;;;;;;2.35;60.36;100031.41;130706;1254;107241;-74
2023/02/26 13:19:28;;;;;;;5.50;2.70;;;;;;;2.29;61.25;100035.84;131039;1259;106410;-74
2023/02/26 13:22:41;;;;;;;6.70;2.80;;;;;;;2.24;60.60;100045.12;131172;1260;107882;-72
2023/02/26 13:25:51;;;;;;;8.40;3.60;;;;;;;2.20;60.62;100037.14;130872;1258;107432;-75
2023/02/26 13:29:01;;;;;;;7.30;3.40;;;;;;;2.19;61.42;100042.17;130614;1259;107456;-75
2023/02/26 13:32:12;;;;;;;6.50;3.00;;;;;;;2.25;61.45;100050.67;130535;1258;107570;-73
2023/02/26 13:35:26;;;;;;;6.50;2.90;;;;;;;2.20;61.13;100054.13;130898;1255;107402;-75
2023/02/26 13:38:40;;;;;;;6.50;3.10;;;;;;;2.07;61.59;100054.50;130643;1258;107515;-75
2023/02/26 13:41:57;;;;;;;67.60;36.30;;;;;;;1.94;61.60;100065.38;130846;1261;106507;-76
2023/02/26 13:45:30;;;;;;;9.30;4.30;;;;;;;1.89;62.42;100065.55;130804;1269;107473;-78
2023/02/26 13:48:45;;;;;;;14.20;7.10;;;;;;;1.85;62.30;100072.12;130965;1257;106629;-77
2023/02/26 13:51:54;;;;;;;9.70;4.80;;;;;;;1.81;62.07;100068.39;130719;1260;107435;-76
2023/02/26 13:55:02;;;;;;;7.10;4.20;;;;;;;1.82;62.62;100072.89;130709;1260;107624;-75
2023/02/26 13:58:28;;;;;;;16.70;10.10;;;;;;;1.88;62.94;100080.33;130755;1258;109431;-77
2023/02/26 14:01:48;;;;;;;34.80;17.90;;;;;;;1.94;62.79;100075.92;130997;1257;108014;-75
2023/02/26 14:04:57;;;;;;;10.30;5.10;;;;;;;1.98;62.92;100084.27;130841;1260;107478;-77
2023/02/26 14:08:25;;;;;;;43.00;22.50;;;;;;;1.98;63.01;100086.91;130754;1254;107312;-74
2023/02/26 14:12:00;;;;;;;8.30;4.80;;;;;;;1.95;63.25;100087.08;130642;1257;107513;-76
2023/02/26 14:15:39;;;;;;;23.00;12.70;;;;;;;1.90;63.25;100084.77;130633;1261;107516;-75
2023/02/26 14:18:52;;;;;;;33.30;18.00;;;;;;;1.85;63.46;100085.48;130627;1257;106504;-76
2023/02/26 14:22:02;;;;;;;56.00;28.50;;;;;;;1.82;63.68;100091.98;130642;1264;107404;-75
2023/02/26 14:25:18;;;;;;;17.10;7.90;;;;;;;1.77;63.78;100091.40;130876;1257;107537;-75
2023/02/26 14:28:43;;;;;;;16.70;9.10;;;;;;;1.76;64.20;100097.77;130797;1258;107492;-75
2023/02/26 14:32:00;;;;;;;21.90;11.20;;;;;;;1.78;64.20;100097.02;130866;1260;107355;-75
2023/02/26 14:35:11;;;;;;;13.20;7.70;;;;;;;1.79;64.36;100096.38;130803;1254;107525;-75
2023/02/26 14:38:27;;;;;;;11.90;6.80;;;;;;;1.81;64.25;100097.64;130887;1257;107381;-77
2023/02/26 14:41:39;;;;;;;14.60;7.90;;;;;;;1.85;64.14;100101.79;130709;1257;215873;-77